sensor_id;sensor_type;location;lat;lon;timestamp;P1;durP1;ratioP1;P2;durP2;ratioP2
12625;SDS011;6378;42.684;23.372;2023-03-22T00:00:43;9.23;;;8.13;;
12625;SDS011;6378;42.684;23.372;2023-03-22T00:03:08;11.20;;;8.45;;
12625;SDS011;6378;42.684;23.372;2023-03-22T00:05:34;9.93;;;8.38;;
12625;SDS011;6378;42.684;23.372;2023-03-22T00:07:59;10.83;;;8.97;;
12625;SDS011;6378;42.684;23.372;2023-03-22T00:10:29;11.47;;;8.97;;
12625;SDS011;6378;42.684;23.372;2023-03-22T00:12:55;10.17;;;9.03;;
12625;SDS011;6378;42.684;23.372;2023-03-22T00:15:21;9.77;;;8.65;;
12625;SDS011;6378;42.684;23.372;2023-03-22T00:17:47;11.33;;;8.53;;
12625;SDS011;6378;42.684;23.372;2023-03-22T00:20:16;11.07;;;8.70;;
12625;SDS011;6378;42.684;23.372;2023-03-22T00:22:44;11.23;;;9.17;;
12625;SDS011;6378;42.684;23.372;2023-03-22T00:25:09;11.47;;;8.73;;
12625;SDS011;6378;42.684;23.372;2023-03-22T00:27:35;10.37;;;9.27;;
12625;SDS011;6378;42.684;23.372;2023-03-22T00:30:01;12.87;;;9.57;;
12625;SDS011;6378;42.684;23.372;2023-03-22T00:32:27;11.47;;;9.10;;
12625;SDS011;6378;42.684;23.372;2023-03-22T00:34:52;10.83;;;8.50;;
12625;SDS011;6378;42.684;23.372;2023-03-22T00:37:17;10.67;;;8.90;;
12625;SDS011;6378;42.684;23.372;2023-03-22T00:39:43;10.63;;;9.18;;
12625;SDS011;6378;42.684;23.372;2023-03-22T00:42:08;11.17;;;8.70;;
12625;SDS011;6378;42.684;23.372;2023-03-22T00:44:34;16.42;;;12.68;;
12625;SDS011;6378;42.684;23.372;2023-03-22T00:47:00;18.50;;;14.73;;
12625;SDS011;6378;42.684;23.372;2023-03-22T00:49:25;24.20;;;17.63;;
12625;SDS011;6378;42.684;23.372;2023-03-22T00:51:51;21.23;;;16.20;;
12625;SDS011;6378;42.684;23.372;2023-03-22T00:54:17;10.70;;;9.57;;
12625;SDS011;6378;42.684;23.372;2023-03-22T00:56:43;11.97;;;9.40;;
12625;SDS011;6378;42.684;23.372;2023-03-22T00:59:14;10.20;;;8.57;;
12625;SDS011;6378;42.684;23.372;2023-03-22T01:01:41;10.48;;;8.70;;
12625;SDS011;6378;42.684;23.372;2023-03-22T01:04:07;10.63;;;8.32;;
12625;SDS011;6378;42.684;23.372;2023-03-22T01:06:32;10.90;;;9.20;;
12625;SDS011;6378;42.684;23.372;2023-03-22T01:08:58;9.40;;;8.40;;
12625;SDS011;6378;42.684;23.372;2023-03-22T01:11:24;11.80;;;8.68;;
12625;SDS011;6378;42.684;23.372;2023-03-22T01:13:50;9.30;;;8.30;;
12625;SDS011;6378;42.684;23.372;2023-03-22T01:16:16;8.93;;;8.03;;
12625;SDS011;6378;42.684;23.372;2023-03-22T01:18:42;9.37;;;8.37;;
12625;SDS011;6378;42.684;23.372;2023-03-22T01:21:07;9.50;;;8.50;;
12625;SDS011;6378;42.684;23.372;2023-03-22T01:23:33;9.10;;;8.03;;
12625;SDS011;6378;42.684;23.372;2023-03-22T01:25:59;10.37;;;8.60;;
12625;SDS011;6378;42.684;23.372;2023-03-22T01:28:25;9.30;;;8.40;;
12625;SDS011;6378;42.684;23.372;2023-03-22T01:30:51;9.47;;;8.30;;
12625;SDS011;6378;42.684;23.372;2023-03-22T01:33:16;9.73;;;8.23;;
12625;SDS011;6378;42.684;23.372;2023-03-22T01:35:42;9.60;;;7.97;;
12625;SDS011;6378;42.684;23.372;2023-03-22T01:38:07;8.30;;;7.50;;
12625;SDS011;6378;42.684;23.372;2023-03-22T01:40:33;10.70;;;7.80;;
12625;SDS011;6378;42.684;23.372;2023-03-22T01:42:59;11.47;;;9.13;;
12625;SDS011;6378;42.684;23.372;2023-03-22T01:45:32;9.27;;;8.00;;
12625;SDS011;6378;42.684;23.372;2023-03-22T01:48:03;9.07;;;8.17;;
12625;SDS011;6378;42.684;23.372;2023-03-22T01:50:42;10.07;;;7.80;;
12625;SDS011;6378;42.684;23.372;2023-03-22T01:53:12;8.53;;;7.33;;
12625;SDS011;6378;42.684;23.372;2023-03-22T01:55:42;9.10;;;7.73;;
12625;SDS011;6378;42.684;23.372;2023-03-22T01:58:09;9.37;;;7.77;;
12625;SDS011;6378;42.684;23.372;2023-03-22T02:00:35;10.37;;;7.80;;
12625;SDS011;6378;42.684;23.372;2023-03-22T02:03:00;9.53;;;7.90;;
12625;SDS011;6378;42.684;23.372;2023-03-22T02:05:26;11.67;;;7.63;;
12625;SDS011;6378;42.684;23.372;2023-03-22T02:07:52;8.97;;;6.90;;
12625;SDS011;6378;42.684;23.372;2023-03-22T02:10:19;8.33;;;7.37;;
12625;SDS011;6378;42.684;23.372;2023-03-22T02:21:12;9.80;;;8.23;;
12625;SDS011;6378;42.684;23.372;2023-03-22T02:40:56;12.20;;;10.00;;
12625;SDS011;6378;42.684;23.372;2023-03-22T02:43:41;10.77;;;8.70;;
12625;SDS011;6378;42.684;23.372;2023-03-22T02:52:11;11.43;;;9.40;;
12625;SDS011;6378;42.684;23.372;2023-03-22T02:55:13;12.20;;;9.70;;
12625;SDS011;6378;42.684;23.372;2023-03-22T02:57:44;11.83;;;9.40;;
12625;SDS011;6378;42.684;23.372;2023-03-22T03:00:16;9.77;;;8.77;;
12625;SDS011;6378;42.684;23.372;2023-03-22T03:02:46;12.40;;;9.57;;
12625;SDS011;6378;42.684;23.372;2023-03-22T03:05:16;11.37;;;9.53;;
12625;SDS011;6378;42.684;23.372;2023-03-22T03:07:45;11.97;;;9.97;;
12625;SDS011;6378;42.684;23.372;2023-03-22T03:10:15;10.97;;;9.40;;
12625;SDS011;6378;42.684;23.372;2023-03-22T03:12:42;10.67;;;8.93;;
12625;SDS011;6378;42.684;23.372;2023-03-22T03:15:09;11.07;;;9.03;;
12625;SDS011;6378;42.684;23.372;2023-03-22T03:17:47;10.77;;;8.73;;
12625;SDS011;6378;42.684;23.372;2023-03-22T03:20:53;10.30;;;8.50;;
12625;SDS011;6378;42.684;23.372;2023-03-22T03:28:48;9.77;;;8.17;;
12625;SDS011;6378;42.684;23.372;2023-03-22T03:34:15;10.20;;;8.90;;
12625;SDS011;6378;42.684;23.372;2023-03-22T03:36:59;9.53;;;7.63;;
12625;SDS011;6378;42.684;23.372;2023-03-22T03:39:30;9.37;;;7.67;;
12625;SDS011;6378;42.684;23.372;2023-03-22T03:41:58;11.13;;;8.47;;
12625;SDS011;6378;42.684;23.372;2023-03-22T03:44:26;9.63;;;6.87;;
12625;SDS011;6378;42.684;23.372;2023-03-22T03:46:55;8.23;;;6.77;;
12625;SDS011;6378;42.684;23.372;2023-03-22T03:49:21;6.90;;;5.70;;
12625;SDS011;6378;42.684;23.372;2023-03-22T03:51:49;7.80;;;6.50;;
12625;SDS011;6378;42.684;23.372;2023-03-22T03:54:17;7.17;;;6.30;;
12625;SDS011;6378;42.684;23.372;2023-03-22T03:56:43;6.10;;;5.40;;
12625;SDS011;6378;42.684;23.372;2023-03-22T03:59:08;6.47;;;5.77;;
12625;SDS011;6378;42.684;23.372;2023-03-22T04:01:34;6.27;;;5.63;;
12625;SDS011;6378;42.684;23.372;2023-03-22T04:04:00;6.57;;;5.70;;
12625;SDS011;6378;42.684;23.372;2023-03-22T04:06:26;5.73;;;5.13;;
12625;SDS011;6378;42.684;23.372;2023-03-22T04:08:51;6.53;;;5.57;;
12625;SDS011;6378;42.684;23.372;2023-03-22T04:11:20;5.43;;;4.93;;
12625;SDS011;6378;42.684;23.372;2023-03-22T04:13:45;6.70;;;5.83;;
12625;SDS011;6378;42.684;23.372;2023-03-22T04:16:11;5.40;;;4.87;;
12625;SDS011;6378;42.684;23.372;2023-03-22T04:18:36;5.77;;;5.20;;
12625;SDS011;6378;42.684;23.372;2023-03-22T04:21:02;5.80;;;5.20;;
12625;SDS011;6378;42.684;23.372;2023-03-22T04:23:29;6.97;;;4.90;;
12625;SDS011;6378;42.684;23.372;2023-03-22T04:25:57;6.87;;;5.20;;
12625;SDS011;6378;42.684;23.372;2023-03-22T04:28:23;5.37;;;4.87;;
12625;SDS011;6378;42.684;23.372;2023-03-22T04:30:50;5.80;;;5.07;;
12625;SDS011;6378;42.684;23.372;2023-03-22T04:33:16;5.57;;;5.00;;
12625;SDS011;6378;42.684;23.372;2023-03-22T04:35:42;5.23;;;4.70;;
12625;SDS011;6378;42.684;23.372;2023-03-22T04:38:10;5.93;;;4.93;;
12625;SDS011;6378;42.684;23.372;2023-03-22T04:40:36;6.50;;;5.00;;
12625;SDS011;6378;42.684;23.372;2023-03-22T04:43:02;5.30;;;4.80;;
12625;SDS011;6378;42.684;23.372;2023-03-22T04:45:28;5.90;;;5.30;;
12625;SDS011;6378;42.684;23.372;2023-03-22T04:47:56;5.37;;;4.87;;
12625;SDS011;6378;42.684;23.372;2023-03-22T04:50:24;5.50;;;5.00;;
12625;SDS011;6378;42.684;23.372;2023-03-22T04:52:52;5.57;;;5.00;;
12625;SDS011;6378;42.684;23.372;2023-03-22T04:55:17;6.23;;;4.90;;
12625;SDS011;6378;42.684;23.372;2023-03-22T04:57:43;6.13;;;5.40;;
12625;SDS011;6378;42.684;23.372;2023-03-22T05:00:08;5.87;;;5.27;;
12625;SDS011;6378;42.684;23.372;2023-03-22T05:02:34;6.00;;;5.40;;
12625;SDS011;6378;42.684;23.372;2023-03-22T05:05:03;6.73;;;5.87;;
12625;SDS011;6378;42.684;23.372;2023-03-22T05:07:29;6.20;;;5.60;;
12625;SDS011;6378;42.684;23.372;2023-03-22T05:09:54;8.50;;;6.17;;
12625;SDS011;6378;42.684;23.372;2023-03-22T05:12:19;6.17;;;5.43;;
12625;SDS011;6378;42.684;23.372;2023-03-22T05:14:45;8.03;;;5.83;;
12625;SDS011;6378;42.684;23.372;2023-03-22T05:17:10;7.43;;;6.57;;
12625;SDS011;6378;42.684;23.372;2023-03-22T05:19:36;6.40;;;5.80;;
12625;SDS011;6378;42.684;23.372;2023-03-22T05:22:01;6.53;;;5.90;;
12625;SDS011;6378;42.684;23.372;2023-03-22T05:24:29;7.65;;;6.85;;
12625;SDS011;6378;42.684;23.372;2023-03-22T05:26:55;7.50;;;6.50;;
12625;SDS011;6378;42.684;23.372;2023-03-22T05:29:25;7.77;;;6.97;;
12625;SDS011;6378;42.684;23.372;2023-03-22T05:31:51;8.00;;;6.40;;
12625;SDS011;6378;42.684;23.372;2023-03-22T05:34:16;7.70;;;6.93;;
12625;SDS011;6378;42.684;23.372;2023-03-22T05:36:44;8.03;;;6.43;;
12625;SDS011;6378;42.684;23.372;2023-03-22T05:39:10;8.67;;;6.73;;
12625;SDS011;6378;42.684;23.372;2023-03-22T05:41:35;7.67;;;6.80;;
12625;SDS011;6378;42.684;23.372;2023-03-22T05:44:01;8.37;;;7.17;;
12625;SDS011;6378;42.684;23.372;2023-03-22T05:46:26;7.97;;;7.17;;
12625;SDS011;6378;42.684;23.372;2023-03-22T05:48:52;7.67;;;6.73;;
12625;SDS011;6378;42.684;23.372;2023-03-22T05:51:17;7.50;;;6.80;;
12625;SDS011;6378;42.684;23.372;2023-03-22T05:53:46;9.03;;;7.70;;
12625;SDS011;6378;42.684;23.372;2023-03-22T05:56:12;7.63;;;6.60;;
12625;SDS011;6378;42.684;23.372;2023-03-22T05:58:39;8.10;;;7.20;;
12625;SDS011;6378;42.684;23.372;2023-03-22T06:01:07;7.50;;;6.63;;
12625;SDS011;6378;42.684;23.372;2023-03-22T06:03:37;6.97;;;6.27;;
12625;SDS011;6378;42.684;23.372;2023-03-22T06:06:04;7.30;;;6.60;;
12625;SDS011;6378;42.684;23.372;2023-03-22T06:08:32;8.10;;;6.87;;
12625;SDS011;6378;42.684;23.372;2023-03-22T06:10:58;7.90;;;7.10;;
12625;SDS011;6378;42.684;23.372;2023-03-22T06:13:23;7.73;;;6.93;;
12625;SDS011;6378;42.684;23.372;2023-03-22T06:15:49;10.50;;;6.83;;
12625;SDS011;6378;42.684;23.372;2023-03-22T06:18:15;9.57;;;8.33;;
12625;SDS011;6378;42.684;23.372;2023-03-22T06:20:40;15.83;;;12.27;;
12625;SDS011;6378;42.684;23.372;2023-03-22T06:23:06;8.70;;;7.25;;
12625;SDS011;6378;42.684;23.372;2023-03-22T06:25:31;7.23;;;6.53;;
12625;SDS011;6378;42.684;23.372;2023-03-22T06:27:57;7.85;;;7.05;;
12625;SDS011;6378;42.684;23.372;2023-03-22T06:30:22;8.17;;;7.37;;
12625;SDS011;6378;42.684;23.372;2023-03-22T06:32:48;7.83;;;7.00;;
12625;SDS011;6378;42.684;23.372;2023-03-22T06:35:13;9.37;;;7.73;;
12625;SDS011;6378;42.684;23.372;2023-03-22T06:37:39;8.37;;;7.47;;
12625;SDS011;6378;42.684;23.372;2023-03-22T06:40:05;7.83;;;6.93;;
12625;SDS011;6378;42.684;23.372;2023-03-22T06:42:31;9.52;;;7.68;;
12625;SDS011;6378;42.684;23.372;2023-03-22T06:44:57;9.02;;;7.90;;
12625;SDS011;6378;42.684;23.372;2023-03-22T06:47:23;8.97;;;7.50;;
12625;SDS011;6378;42.684;23.372;2023-03-22T06:49:48;8.30;;;7.47;;
12625;SDS011;6378;42.684;23.372;2023-03-22T06:52:14;8.80;;;7.88;;
12625;SDS011;6378;42.684;23.372;2023-03-22T06:54:39;14.13;;;9.85;;
12625;SDS011;6378;42.684;23.372;2023-03-22T06:57:05;9.82;;;8.30;;
12625;SDS011;6378;42.684;23.372;2023-03-22T06:59:30;8.98;;;8.05;;
12625;SDS011;6378;42.684;23.372;2023-03-22T07:01:56;9.53;;;8.53;;
12625;SDS011;6378;42.684;23.372;2023-03-22T07:04:23;10.73;;;8.60;;
12625;SDS011;6378;42.684;23.372;2023-03-22T07:06:49;9.95;;;8.02;;
12625;SDS011;6378;42.684;23.372;2023-03-22T07:09:15;13.23;;;8.45;;
12625;SDS011;6378;42.684;23.372;2023-03-22T07:11:40;9.88;;;8.00;;
12625;SDS011;6378;42.684;23.372;2023-03-22T07:14:06;9.73;;;8.70;;
12625;SDS011;6378;42.684;23.372;2023-03-22T07:16:31;12.05;;;10.10;;
12625;SDS011;6378;42.684;23.372;2023-03-22T07:18:57;11.55;;;8.95;;
12625;SDS011;6378;42.684;23.372;2023-03-22T07:21:22;9.75;;;8.75;;
12625;SDS011;6378;42.684;23.372;2023-03-22T07:23:48;17.65;;;11.95;;
12625;SDS011;6378;42.684;23.372;2023-03-22T07:26:13;14.00;;;11.30;;
12625;SDS011;6378;42.684;23.372;2023-03-22T07:28:39;11.88;;;8.82;;
12625;SDS011;6378;42.684;23.372;2023-03-22T07:31:06;8.85;;;7.28;;
12625;SDS011;6378;42.684;23.372;2023-03-22T07:33:37;8.32;;;7.53;;
12625;SDS011;6378;42.684;23.372;2023-03-22T07:36:05;9.85;;;8.15;;
12625;SDS011;6378;42.684;23.372;2023-03-22T07:38:31;9.30;;;7.88;;
12625;SDS011;6378;42.684;23.372;2023-03-22T07:40:57;9.57;;;8.52;;
12625;SDS011;6378;42.684;23.372;2023-03-22T07:43:23;12.60;;;9.60;;
12625;SDS011;6378;42.684;23.372;2023-03-22T07:45:49;12.32;;;8.68;;
12625;SDS011;6378;42.684;23.372;2023-03-22T07:48:15;11.27;;;8.35;;
12625;SDS011;6378;42.684;23.372;2023-03-22T07:50:40;9.05;;;8.10;;
12625;SDS011;6378;42.684;23.372;2023-03-22T07:53:07;12.48;;;9.75;;
12625;SDS011;6378;42.684;23.372;2023-03-22T07:55:33;11.50;;;9.90;;
12625;SDS011;6378;42.684;23.372;2023-03-22T07:57:59;12.67;;;10.43;;
12625;SDS011;6378;42.684;23.372;2023-03-22T08:00:24;13.00;;;10.98;;
12625;SDS011;6378;42.684;23.372;2023-03-22T08:02:51;15.77;;;13.15;;
12625;SDS011;6378;42.684;23.372;2023-03-22T08:05:16;14.18;;;12.68;;
12625;SDS011;6378;42.684;23.372;2023-03-22T08:07:42;14.37;;;12.77;;
12625;SDS011;6378;42.684;23.372;2023-03-22T08:10:08;13.30;;;11.90;;
12625;SDS011;6378;42.684;23.372;2023-03-22T08:12:33;14.45;;;11.82;;
12625;SDS011;6378;42.684;23.372;2023-03-22T08:14:59;14.25;;;11.10;;
12625;SDS011;6378;42.684;23.372;2023-03-22T08:17:24;14.20;;;12.68;;
12625;SDS011;6378;42.684;23.372;2023-03-22T08:19:50;13.13;;;11.65;;
12625;SDS011;6378;42.684;23.372;2023-03-22T08:22:18;12.50;;;10.70;;
12625;SDS011;6378;42.684;23.372;2023-03-22T08:24:47;12.50;;;11.20;;
12625;SDS011;6378;42.684;23.372;2023-03-22T08:27:12;11.60;;;10.40;;
12625;SDS011;6378;42.684;23.372;2023-03-22T08:29:38;11.80;;;10.20;;
12625;SDS011;6378;42.684;23.372;2023-03-22T08:32:03;12.50;;;10.80;;
12625;SDS011;6378;42.684;23.372;2023-03-22T08:34:29;11.73;;;10.48;;
12625;SDS011;6378;42.684;23.372;2023-03-22T08:36:55;15.50;;;12.98;;
12625;SDS011;6378;42.684;23.372;2023-03-22T08:39:21;12.52;;;10.35;;
12625;SDS011;6378;42.684;23.372;2023-03-22T08:41:47;11.82;;;10.63;;
12625;SDS011;6378;42.684;23.372;2023-03-22T08:44:13;12.63;;;10.90;;
12625;SDS011;6378;42.684;23.372;2023-03-22T08:46:38;12.43;;;11.05;;
12625;SDS011;6378;42.684;23.372;2023-03-22T08:49:03;12.98;;;11.50;;
12625;SDS011;6378;42.684;23.372;2023-03-22T08:51:29;12.20;;;10.52;;
12625;SDS011;6378;42.684;23.372;2023-03-22T08:53:55;15.07;;;11.52;;
12625;SDS011;6378;42.684;23.372;2023-03-22T08:56:24;14.48;;;11.32;;
12625;SDS011;6378;42.684;23.372;2023-03-22T08:58:51;13.43;;;11.10;;
12625;SDS011;6378;42.684;23.372;2023-03-22T09:01:16;13.32;;;11.82;;
12625;SDS011;6378;42.684;23.372;2023-03-22T09:03:44;14.27;;;12.07;;
12625;SDS011;6378;42.684;23.372;2023-03-22T09:06:09;14.73;;;11.90;;
12625;SDS011;6378;42.684;23.372;2023-03-22T09:08:35;16.48;;;13.15;;
12625;SDS011;6378;42.684;23.372;2023-03-22T09:11:01;15.93;;;11.80;;
12625;SDS011;6378;42.684;23.372;2023-03-22T09:13:26;15.68;;;11.52;;
12625;SDS011;6378;42.684;23.372;2023-03-22T09:15:54;14.48;;;11.60;;
12625;SDS011;6378;42.684;23.372;2023-03-22T09:18:20;14.35;;;12.00;;
12625;SDS011;6378;42.684;23.372;2023-03-22T09:20:48;14.32;;;12.13;;
12625;SDS011;6378;42.684;23.372;2023-03-22T09:23:14;12.52;;;10.30;;
12625;SDS011;6378;42.684;23.372;2023-03-22T09:25:43;11.95;;;9.75;;
12625;SDS011;6378;42.684;23.372;2023-03-22T09:28:12;11.63;;;10.40;;
12625;SDS011;6378;42.684;23.372;2023-03-22T09:30:38;13.68;;;10.48;;
12625;SDS011;6378;42.684;23.372;2023-03-22T09:33:04;13.80;;;11.00;;
12625;SDS011;6378;42.684;23.372;2023-03-22T09:35:30;14.35;;;11.52;;
12625;SDS011;6378;42.684;23.372;2023-03-22T09:37:56;11.60;;;10.40;;
12625;SDS011;6378;42.684;23.372;2023-03-22T09:40:25;14.27;;;12.10;;
12625;SDS011;6378;42.684;23.372;2023-03-22T09:42:58;15.45;;;11.40;;
12625;SDS011;6378;42.684;23.372;2023-03-22T09:45:30;12.23;;;9.85;;
12625;SDS011;6378;42.684;23.372;2023-03-22T09:48:03;10.95;;;9.80;;
12625;SDS011;6378;42.684;23.372;2023-03-22T09:50:43;13.52;;;10.38;;
12625;SDS011;6378;42.684;23.372;2023-03-22T09:53:12;11.68;;;9.73;;
12625;SDS011;6378;42.684;23.372;2023-03-22T09:55:43;12.05;;;10.18;;
12625;SDS011;6378;42.684;23.372;2023-03-22T10:06:41;9.75;;;8.10;;
12625;SDS011;6378;42.684;23.372;2023-03-22T10:14:35;9.43;;;7.80;;
12625;SDS011;6378;42.684;23.372;2023-03-22T10:17:24;11.90;;;8.68;;
12625;SDS011;6378;42.684;23.372;2023-03-22T10:19:55;16.65;;;11.55;;
12625;SDS011;6378;42.684;23.372;2023-03-22T10:22:28;15.82;;;11.90;;
12625;SDS011;6378;42.684;23.372;2023-03-22T10:24:57;18.38;;;13.73;;
12625;SDS011;6378;42.684;23.372;2023-03-22T10:27:25;14.65;;;11.05;;
12625;SDS011;6378;42.684;23.372;2023-03-22T10:29:58;14.70;;;11.55;;
12625;SDS011;6378;42.684;23.372;2023-03-22T10:32:35;14.10;;;11.45;;
12625;SDS011;6378;42.684;23.372;2023-03-22T10:35:04;16.05;;;11.50;;
12625;SDS011;6378;42.684;23.372;2023-03-22T10:37:33;10.98;;;9.57;;
12625;SDS011;6378;42.684;23.372;2023-03-22T10:40:02;11.25;;;9.10;;
12625;SDS011;6378;42.684;23.372;2023-03-22T10:42:33;10.30;;;8.30;;
12625;SDS011;6378;42.684;23.372;2023-03-22T10:45:03;9.70;;;8.70;;
12625;SDS011;6378;42.684;23.372;2023-03-22T10:47:34;10.13;;;8.75;;
12625;SDS011;6378;42.684;23.372;2023-03-22T10:50:15;10.57;;;8.77;;
12625;SDS011;6378;42.684;23.372;2023-03-22T10:55:28;9.20;;;7.47;;
12625;SDS011;6378;42.684;23.372;2023-03-22T10:58:14;22.10;;;15.48;;
12625;SDS011;6378;42.684;23.372;2023-03-22T11:00:45;10.80;;;7.85;;
12625;SDS011;6378;42.684;23.372;2023-03-22T11:03:24;8.25;;;6.70;;
12625;SDS011;6378;42.684;23.372;2023-03-22T11:08:46;7.85;;;5.95;;
12625;SDS011;6378;42.684;23.372;2023-03-22T11:11:22;9.98;;;7.15;;
12625;SDS011;6378;42.684;23.372;2023-03-22T11:13:54;8.38;;;6.38;;
12625;SDS011;6378;42.684;23.372;2023-03-22T11:19:24;7.75;;;6.40;;
12625;SDS011;6378;42.684;23.372;2023-03-22T11:21:53;6.05;;;5.30;;
12625;SDS011;6378;42.684;23.372;2023-03-22T11:24:22;6.85;;;5.50;;
12625;SDS011;6378;42.684;23.372;2023-03-22T11:27:00;5.50;;;5.00;;
12625;SDS011;6378;42.684;23.372;2023-03-22T11:29:47;6.30;;;4.88;;
12625;SDS011;6378;42.684;23.372;2023-03-22T11:37:47;6.97;;;6.13;;
12625;SDS011;6378;42.684;23.372;2023-03-22T11:40:22;6.53;;;5.80;;
12625;SDS011;6378;42.684;23.372;2023-03-22T11:42:49;6.20;;;5.57;;
12625;SDS011;6378;42.684;23.372;2023-03-22T11:45:20;6.82;;;5.60;;
12625;SDS011;6378;42.684;23.372;2023-03-22T11:48:06;7.07;;;5.93;;
12625;SDS011;6378;42.684;23.372;2023-03-22T11:50:35;6.88;;;5.82;;
12625;SDS011;6378;42.684;23.372;2023-03-22T11:53:03;6.38;;;5.72;;
12625;SDS011;6378;42.684;23.372;2023-03-22T11:55:33;7.13;;;5.68;;
12625;SDS011;6378;42.684;23.372;2023-03-22T11:58:03;6.35;;;5.75;;
12625;SDS011;6378;42.684;23.372;2023-03-22T12:00:31;7.88;;;6.10;;
12625;SDS011;6378;42.684;23.372;2023-03-22T12:03:03;6.70;;;5.93;;
12625;SDS011;6378;42.684;23.372;2023-03-22T12:05:35;8.65;;;6.00;;
12625;SDS011;6378;42.684;23.372;2023-03-22T12:08:07;11.73;;;9.52;;
12625;SDS011;6378;42.684;23.372;2023-03-22T12:11:04;8.50;;;7.18;;
12625;SDS011;6378;42.684;23.372;2023-03-22T12:16:08;7.40;;;6.70;;
12625;SDS011;6378;42.684;23.372;2023-03-22T12:21:29;7.15;;;6.00;;
12625;SDS011;6378;42.684;23.372;2023-03-22T12:23:57;6.05;;;5.40;;
12625;SDS011;6378;42.684;23.372;2023-03-22T12:26:25;8.52;;;7.20;;
12625;SDS011;6378;42.684;23.372;2023-03-22T12:31:40;8.52;;;6.70;;
12625;SDS011;6378;42.684;23.372;2023-03-22T12:34:14;7.82;;;6.90;;
12625;SDS011;6378;42.684;23.372;2023-03-22T12:36:46;8.40;;;7.45;;
12625;SDS011;6378;42.684;23.372;2023-03-22T12:39:21;9.05;;;7.43;;
12625;SDS011;6378;42.684;23.372;2023-03-22T12:41:51;7.63;;;6.82;;
12625;SDS011;6378;42.684;23.372;2023-03-22T12:44:25;9.30;;;6.88;;
12625;SDS011;6378;42.684;23.372;2023-03-22T12:46:58;10.30;;;6.75;;
12625;SDS011;6378;42.684;23.372;2023-03-22T12:49:44;9.95;;;7.05;;
12625;SDS011;6378;42.684;23.372;2023-03-22T12:52:51;9.20;;;6.72;;
12625;SDS011;6378;42.684;23.372;2023-03-22T12:58:06;10.75;;;7.10;;
12625;SDS011;6378;42.684;23.372;2023-03-22T13:03:06;7.57;;;6.28;;
12625;SDS011;6378;42.684;23.372;2023-03-22T13:05:45;11.02;;;5.85;;
12625;SDS011;6378;42.684;23.372;2023-03-22T13:08:19;6.72;;;5.40;;
12625;SDS011;6378;42.684;23.372;2023-03-22T13:15:55;13.32;;;6.10;;
12625;SDS011;6378;42.684;23.372;2023-03-22T13:18:37;9.57;;;5.82;;
12625;SDS011;6378;42.684;23.372;2023-03-22T13:21:23;8.57;;;5.30;;
12625;SDS011;6378;42.684;23.372;2023-03-22T13:29:44;6.38;;;5.07;;
12625;SDS011;6378;42.684;23.372;2023-03-22T13:32:03;6.30;;;5.45;;
12625;SDS011;6378;42.684;23.372;2023-03-22T13:34:37;6.40;;;5.50;;
12625;SDS011;6378;42.684;23.372;2023-03-22T13:39:54;4.43;;;3.67;;
12625;SDS011;6378;42.684;23.372;2023-03-22T13:42:26;5.35;;;4.82;;
12625;SDS011;6378;42.684;23.372;2023-03-22T13:45:00;7.20;;;4.70;;
12625;SDS011;6378;42.684;23.372;2023-03-22T13:47:29;5.25;;;4.75;;
12625;SDS011;6378;42.684;23.372;2023-03-22T13:50:09;6.47;;;5.32;;
12625;SDS011;6378;42.684;23.372;2023-03-22T13:52:37;9.02;;;7.32;;
12625;SDS011;6378;42.684;23.372;2023-03-22T13:55:34;8.68;;;7.00;;
12625;SDS011;6378;42.684;23.372;2023-03-22T13:58:01;8.85;;;7.10;;
12625;SDS011;6378;42.684;23.372;2023-03-22T14:03:05;7.22;;;6.50;;
12625;SDS011;6378;42.684;23.372;2023-03-22T14:05:41;9.40;;;7.18;;
12625;SDS011;6378;42.684;23.372;2023-03-22T14:08:20;8.88;;;7.00;;
12625;SDS011;6378;42.684;23.372;2023-03-22T14:10:55;7.32;;;6.60;;
12625;SDS011;6378;42.684;23.372;2023-03-22T14:13:40;9.18;;;7.55;;
12625;SDS011;6378;42.684;23.372;2023-03-22T14:16:14;18.13;;;14.52;;
12625;SDS011;6378;42.684;23.372;2023-03-22T14:18:44;10.50;;;8.05;;
12625;SDS011;6378;42.684;23.372;2023-03-22T14:21:14;9.07;;;6.55;;
12625;SDS011;6378;42.684;23.372;2023-03-22T14:23:44;11.27;;;9.68;;
12625;SDS011;6378;42.684;23.372;2023-03-22T14:29:17;10.30;;;7.47;;
12625;SDS011;6378;42.684;23.372;2023-03-22T14:31:44;9.38;;;7.20;;
12625;SDS011;6378;42.684;23.372;2023-03-22T14:34:15;11.45;;;7.13;;
12625;SDS011;6378;42.684;23.372;2023-03-22T14:36:44;9.63;;;7.57;;
12625;SDS011;6378;42.684;23.372;2023-03-22T14:39:15;8.43;;;7.50;;
12625;SDS011;6378;42.684;23.372;2023-03-22T14:44:44;9.93;;;7.55;;
12625;SDS011;6378;42.684;23.372;2023-03-22T14:47:15;11.52;;;8.23;;
12625;SDS011;6378;42.684;23.372;2023-03-22T14:49:47;10.93;;;8.50;;
12625;SDS011;6378;42.684;23.372;2023-03-22T14:52:18;10.73;;;8.25;;
12625;SDS011;6378;42.684;23.372;2023-03-22T14:54:47;10.25;;;8.65;;
12625;SDS011;6378;42.684;23.372;2023-03-22T14:57:15;10.00;;;8.38;;
12625;SDS011;6378;42.684;23.372;2023-03-22T14:59:42;11.32;;;8.70;;
12625;SDS011;6378;42.684;23.372;2023-03-22T15:02:21;10.77;;;7.88;;
12625;SDS011;6378;42.684;23.372;2023-03-22T15:04:57;10.93;;;8.32;;
12625;SDS011;6378;42.684;23.372;2023-03-22T15:07:23;9.45;;;7.97;;
12625;SDS011;6378;42.684;23.372;2023-03-22T15:09:48;11.00;;;8.75;;
12625;SDS011;6378;42.684;23.372;2023-03-22T15:12:14;11.13;;;8.13;;
12625;SDS011;6378;42.684;23.372;2023-03-22T15:14:42;10.95;;;8.43;;
12625;SDS011;6378;42.684;23.372;2023-03-22T15:17:09;10.55;;;8.45;;
12625;SDS011;6378;42.684;23.372;2023-03-22T15:19:45;11.85;;;8.25;;
12625;SDS011;6378;42.684;23.372;2023-03-22T15:22:14;11.48;;;8.35;;
12625;SDS011;6378;42.684;23.372;2023-03-22T15:24:52;17.17;;;13.00;;
12625;SDS011;6378;42.684;23.372;2023-03-22T15:27:22;20.88;;;15.77;;
12625;SDS011;6378;42.684;23.372;2023-03-22T15:29:48;16.83;;;12.88;;
12625;SDS011;6378;42.684;23.372;2023-03-22T15:32:20;10.95;;;8.48;;
12625;SDS011;6378;42.684;23.372;2023-03-22T15:34:48;12.02;;;8.80;;
12625;SDS011;6378;42.684;23.372;2023-03-22T15:39:44;14.55;;;9.52;;
12625;SDS011;6378;42.684;23.372;2023-03-22T15:42:15;13.73;;;9.50;;
12625;SDS011;6378;42.684;23.372;2023-03-22T15:44:49;12.63;;;9.18;;
12625;SDS011;6378;42.684;23.372;2023-03-22T15:47:17;11.85;;;9.55;;
12625;SDS011;6378;42.684;23.372;2023-03-22T15:52:22;13.23;;;9.77;;
12625;SDS011;6378;42.684;23.372;2023-03-22T16:02:49;9.93;;;7.88;;
12625;SDS011;6378;42.684;23.372;2023-03-22T16:05:17;11.57;;;7.90;;
12625;SDS011;6378;42.684;23.372;2023-03-22T16:07:43;11.15;;;8.57;;
12625;SDS011;6378;42.684;23.372;2023-03-22T16:10:13;11.25;;;8.90;;
12625;SDS011;6378;42.684;23.372;2023-03-22T16:12:42;13.45;;;9.30;;
12625;SDS011;6378;42.684;23.372;2023-03-22T16:15:12;14.35;;;9.65;;
12625;SDS011;6378;42.684;23.372;2023-03-22T16:17:43;13.02;;;10.25;;
12625;SDS011;6378;42.684;23.372;2023-03-22T16:20:09;15.77;;;11.57;;
12625;SDS011;6378;42.684;23.372;2023-03-22T16:22:36;15.20;;;11.93;;
12625;SDS011;6378;42.684;23.372;2023-03-22T16:25:02;16.20;;;11.90;;
12625;SDS011;6378;42.684;23.372;2023-03-22T16:27:28;14.30;;;11.88;;
12625;SDS011;6378;42.684;23.372;2023-03-22T16:29:53;16.63;;;12.27;;
12625;SDS011;6378;42.684;23.372;2023-03-22T16:32:19;18.88;;;13.20;;
12625;SDS011;6378;42.684;23.372;2023-03-22T16:34:48;17.98;;;13.00;;
12625;SDS011;6378;42.684;23.372;2023-03-22T16:37:15;17.10;;;13.25;;
12625;SDS011;6378;42.684;23.372;2023-03-22T16:39:42;20.35;;;14.43;;
12625;SDS011;6378;42.684;23.372;2023-03-22T16:42:13;22.27;;;14.07;;
12625;SDS011;6378;42.684;23.372;2023-03-22T16:44:44;30.23;;;20.40;;